sensor_id;sensor_type;location;lat;lon;timestamp;P1;durP1;ratioP1;P2;durP2;ratioP2
22107;SDS011;11220;48.812;9.128;2023-03-01T00:02:16;0.70;;;0.63;;
22107;SDS011;11220;48.812;9.128;2023-03-01T00:04:41;0.60;;;0.50;;
22107;SDS011;11220;48.812;9.128;2023-03-01T00:07:07;0.88;;;0.80;;
22107;SDS011;11220;48.812;9.128;2023-03-01T00:09:32;1.20;;;0.90;;
22107;SDS011;11220;48.812;9.128;2023-03-01T00:11:58;0.90;;;0.85;;
22107;SDS011;11220;48.812;9.128;2023-03-01T00:14:23;1.10;;;0.80;;
22107;SDS011;11220;48.812;9.128;2023-03-01T00:16:49;0.88;;;0.70;;
22107;SDS011;11220;48.812;9.128;2023-03-01T00:19:18;1.25;;;0.88;;
22107;SDS011;11220;48.812;9.128;2023-03-01T00:24:10;1.05;;;0.90;;
22107;SDS011;11220;48.812;9.128;2023-03-01T00:26:36;1.10;;;0.88;;
22107;SDS011;11220;48.812;9.128;2023-03-01T00:29:02;0.82;;;0.80;;
22107;SDS011;11220;48.812;9.128;2023-03-01T00:31:28;1.00;;;0.90;;
22107;SDS011;11220;48.812;9.128;2023-03-01T00:33:56;0.77;;;0.77;;
22107;SDS011;11220;48.812;9.128;2023-03-01T00:36:25;1.00;;;0.82;;
22107;SDS011;11220;48.812;9.128;2023-03-01T00:38:53;1.88;;;0.90;;
22107;SDS011;11220;48.812;9.128;2023-03-01T00:41:19;0.90;;;0.82;;
22107;SDS011;11220;48.812;9.128;2023-03-01T00:43:47;0.98;;;0.70;;
22107;SDS011;11220;48.812;9.128;2023-03-01T00:46:17;0.93;;;0.93;;
22107;SDS011;11220;48.812;9.128;2023-03-01T00:48:45;0.98;;;0.80;;
22107;SDS011;11220;48.812;9.128;2023-03-01T00:51:16;1.08;;;0.98;;
22107;SDS011;11220;48.812;9.128;2023-03-01T00:53:43;1.35;;;0.88;;
22107;SDS011;11220;48.812;9.128;2023-03-01T00:56:10;1.08;;;0.80;;
22107;SDS011;11220;48.812;9.128;2023-03-01T00:58:37;0.88;;;0.88;;
22107;SDS011;11220;48.812;9.128;2023-03-01T01:01:16;1.00;;;0.68;;
22107;SDS011;11220;48.812;9.128;2023-03-01T01:04:03;1.10;;;0.82;;
22107;SDS011;11220;48.812;9.128;2023-03-01T01:06:31;0.93;;;0.82;;
22107;SDS011;11220;48.812;9.128;2023-03-01T01:08:59;0.93;;;0.83;;
22107;SDS011;11220;48.812;9.128;2023-03-01T01:11:25;1.23;;;0.98;;
22107;SDS011;11220;48.812;9.128;2023-03-01T01:13:52;0.98;;;0.80;;
22107;SDS011;11220;48.812;9.128;2023-03-01T01:16:19;1.00;;;0.90;;
22107;SDS011;11220;48.812;9.128;2023-03-01T01:18:45;1.38;;;0.90;;
22107;SDS011;11220;48.812;9.128;2023-03-01T01:21:12;1.13;;;0.90;;
22107;SDS011;11220;48.812;9.128;2023-03-01T01:23:40;0.85;;;0.80;;
22107;SDS011;11220;48.812;9.128;2023-03-01T01:26:08;0.73;;;0.68;;
22107;SDS011;11220;48.812;9.128;2023-03-01T01:28:36;0.75;;;0.75;;
22107;SDS011;11220;48.812;9.128;2023-03-01T01:31:02;0.70;;;0.70;;
22107;SDS011;11220;48.812;9.128;2023-03-01T01:33:28;1.08;;;1.00;;
22107;SDS011;11220;48.812;9.128;2023-03-01T01:35:54;0.85;;;0.85;;
22107;SDS011;11220;48.812;9.128;2023-03-01T01:38:20;1.15;;;0.88;;
22107;SDS011;11220;48.812;9.128;2023-03-01T01:40:46;1.17;;;0.80;;
22107;SDS011;11220;48.812;9.128;2023-03-01T01:45:47;1.10;;;0.80;;
22107;SDS011;11220;48.812;9.128;2023-03-01T01:48:15;1.08;;;0.80;;
22107;SDS011;11220;48.812;9.128;2023-03-01T01:50:44;1.25;;;0.70;;
22107;SDS011;11220;48.812;9.128;2023-03-01T01:53:14;1.17;;;0.85;;
22107;SDS011;11220;48.812;9.128;2023-03-01T01:55:47;1.25;;;0.70;;
22107;SDS011;11220;48.812;9.128;2023-03-01T01:58:18;0.80;;;0.77;;
22107;SDS011;11220;48.812;9.128;2023-03-01T02:00:45;1.05;;;0.88;;
22107;SDS011;11220;48.812;9.128;2023-03-01T02:03:13;1.38;;;0.90;;
22107;SDS011;11220;48.812;9.128;2023-03-01T02:05:46;1.00;;;0.90;;
22107;SDS011;11220;48.812;9.128;2023-03-01T02:08:13;1.20;;;1.10;;
22107;SDS011;11220;48.812;9.128;2023-03-01T02:10:40;1.27;;;1.00;;
22107;SDS011;11220;48.812;9.128;2023-03-01T02:13:07;1.10;;;1.00;;
22107;SDS011;11220;48.812;9.128;2023-03-01T02:15:34;0.98;;;0.82;;
22107;SDS011;11220;48.812;9.128;2023-03-01T02:18:01;0.80;;;0.80;;
22107;SDS011;11220;48.812;9.128;2023-03-01T02:23:14;1.13;;;0.93;;
22107;SDS011;11220;48.812;9.128;2023-03-01T02:25:46;1.10;;;1.00;;
22107;SDS011;11220;48.812;9.128;2023-03-01T02:30:41;1.08;;;0.82;;
22107;SDS011;11220;48.812;9.128;2023-03-01T02:33:28;0.98;;;0.88;;
22107;SDS011;11220;48.812;9.128;2023-03-01T02:35:57;1.13;;;0.85;;
22107;SDS011;11220;48.812;9.128;2023-03-01T02:38:26;1.17;;;0.98;;
22107;SDS011;11220;48.812;9.128;2023-03-01T02:40:52;1.10;;;1.00;;
22107;SDS011;11220;48.812;9.128;2023-03-01T02:43:22;1.63;;;0.80;;
22107;SDS011;11220;48.812;9.128;2023-03-01T02:45:51;1.15;;;1.02;;
22107;SDS011;11220;48.812;9.128;2023-03-01T02:48:18;1.17;;;0.80;;
22107;SDS011;11220;48.812;9.128;2023-03-01T02:56:51;1.10;;;1.00;;
22107;SDS011;11220;48.812;9.128;2023-03-01T02:59:21;1.10;;;0.80;;
22107;SDS011;11220;48.812;9.128;2023-03-01T03:01:49;1.20;;;1.05;;
22107;SDS011;11220;48.812;9.128;2023-03-01T03:04:15;1.00;;;0.90;;
22107;SDS011;11220;48.812;9.128;2023-03-01T03:06:43;1.25;;;1.00;;
22107;SDS011;11220;48.812;9.128;2023-03-01T03:11:38;1.48;;;0.90;;
22107;SDS011;11220;48.812;9.128;2023-03-01T03:14:05;1.30;;;1.20;;
22107;SDS011;11220;48.812;9.128;2023-03-01T03:16:37;1.13;;;1.00;;
22107;SDS011;11220;48.812;9.128;2023-03-01T03:19:23;1.25;;;1.00;;
22107;SDS011;11220;48.812;9.128;2023-03-01T03:21:48;1.20;;;0.90;;
22107;SDS011;11220;48.812;9.128;2023-03-01T03:24:14;1.00;;;0.90;;
22107;SDS011;11220;48.812;9.128;2023-03-01T03:26:40;1.55;;;1.30;;
22107;SDS011;11220;48.812;9.128;2023-03-01T03:29:05;1.10;;;0.90;;
22107;SDS011;11220;48.812;9.128;2023-03-01T03:31:31;1.00;;;0.90;;
22107;SDS011;11220;48.812;9.128;2023-03-01T03:33:56;1.20;;;0.90;;
22107;SDS011;11220;48.812;9.128;2023-03-01T03:36:25;0.98;;;0.90;;
22107;SDS011;11220;48.812;9.128;2023-03-01T03:38:50;1.20;;;1.00;;
22107;SDS011;11220;48.812;9.128;2023-03-01T03:41:16;0.90;;;0.90;;
22107;SDS011;11220;48.812;9.128;2023-03-01T03:43:42;0.90;;;0.90;;
22107;SDS011;11220;48.812;9.128;2023-03-01T03:46:09;1.70;;;0.98;;
22107;SDS011;11220;48.812;9.128;2023-03-01T03:48:37;1.85;;;1.38;;
22107;SDS011;11220;48.812;9.128;2023-03-01T03:51:04;0.80;;;0.80;;
22107;SDS011;11220;48.812;9.128;2023-03-01T03:53:30;1.10;;;1.00;;
22107;SDS011;11220;48.812;9.128;2023-03-01T03:55:56;1.48;;;1.08;;
22107;SDS011;11220;48.812;9.128;2023-03-01T03:58:23;1.17;;;1.05;;
22107;SDS011;11220;48.812;9.128;2023-03-01T04:00:51;1.38;;;1.20;;
22107;SDS011;11220;48.812;9.128;2023-03-01T04:03:18;1.33;;;1.00;;
22107;SDS011;11220;48.812;9.128;2023-03-01T04:05:45;1.10;;;0.93;;
22107;SDS011;11220;48.812;9.128;2023-03-01T04:08:11;1.55;;;1.23;;
22107;SDS011;11220;48.812;9.128;2023-03-01T04:10:40;1.63;;;1.30;;
22107;SDS011;11220;48.812;9.128;2023-03-01T04:13:13;1.25;;;1.10;;
22107;SDS011;11220;48.812;9.128;2023-03-01T04:15:40;0.98;;;0.80;;
22107;SDS011;11220;48.812;9.128;2023-03-01T04:18:08;1.92;;;1.20;;
22107;SDS011;11220;48.812;9.128;2023-03-01T04:20:36;1.30;;;1.10;;
22107;SDS011;11220;48.812;9.128;2023-03-01T04:25:46;2.03;;;1.02;;
22107;SDS011;11220;48.812;9.128;2023-03-01T04:28:27;1.23;;;1.13;;
22107;SDS011;11220;48.812;9.128;2023-03-01T04:30:54;0.82;;;0.82;;
22107;SDS011;11220;48.812;9.128;2023-03-01T04:33:22;1.73;;;1.20;;
22107;SDS011;11220;48.812;9.128;2023-03-01T04:35:48;1.23;;;1.00;;
22107;SDS011;11220;48.812;9.128;2023-03-01T04:38:14;0.93;;;0.82;;
22107;SDS011;11220;48.812;9.128;2023-03-01T04:40:40;1.20;;;1.10;;
22107;SDS011;11220;48.812;9.128;2023-03-01T04:43:08;1.58;;;1.20;;
22107;SDS011;11220;48.812;9.128;2023-03-01T04:45:34;1.33;;;1.20;;
22107;SDS011;11220;48.812;9.128;2023-03-01T04:48:00;1.20;;;1.10;;
22107;SDS011;11220;48.812;9.128;2023-03-01T04:50:27;1.42;;;1.10;;
22107;SDS011;11220;48.812;9.128;2023-03-01T04:52:52;1.15;;;1.05;;
22107;SDS011;11220;48.812;9.128;2023-03-01T04:55:18;1.58;;;1.27;;
22107;SDS011;11220;48.812;9.128;2023-03-01T04:57:44;1.20;;;1.10;;
22107;SDS011;11220;48.812;9.128;2023-03-01T05:00:10;1.30;;;1.20;;
22107;SDS011;11220;48.812;9.128;2023-03-01T05:02:50;1.70;;;1.05;;
22107;SDS011;11220;48.812;9.128;2023-03-01T05:05:18;1.15;;;0.98;;
22107;SDS011;11220;48.812;9.128;2023-03-01T05:07:45;1.60;;;1.20;;
22107;SDS011;11220;48.812;9.128;2023-03-01T05:10:11;1.50;;;1.40;;
22107;SDS011;11220;48.812;9.128;2023-03-01T05:12:36;1.05;;;0.95;;
22107;SDS011;11220;48.812;9.128;2023-03-01T05:15:02;1.75;;;1.48;;
22107;SDS011;11220;48.812;9.128;2023-03-01T05:17:31;2.50;;;1.30;;
22107;SDS011;11220;48.812;9.128;2023-03-01T05:19:58;1.42;;;1.20;;
22107;SDS011;11220;48.812;9.128;2023-03-01T05:22:24;1.17;;;0.95;;
22107;SDS011;11220;48.812;9.128;2023-03-01T05:24:50;1.23;;;1.13;;
22107;SDS011;11220;48.812;9.128;2023-03-01T05:27:15;1.05;;;0.95;;
22107;SDS011;11220;48.812;9.128;2023-03-01T05:29:41;1.48;;;1.33;;
22107;SDS011;11220;48.812;9.128;2023-03-01T05:32:07;1.20;;;1.10;;
22107;SDS011;11220;48.812;9.128;2023-03-01T05:34:34;1.30;;;1.20;;
22107;SDS011;11220;48.812;9.128;2023-03-01T05:37:01;1.45;;;1.20;;
22107;SDS011;11220;48.812;9.128;2023-03-01T05:39:27;1.23;;;1.10;;
22107;SDS011;11220;48.812;9.128;2023-03-01T05:41:55;1.40;;;1.02;;
22107;SDS011;11220;48.812;9.128;2023-03-01T05:44:21;1.38;;;1.27;;
22107;SDS011;11220;48.812;9.128;2023-03-01T05:46:47;1.42;;;1.08;;
22107;SDS011;11220;48.812;9.128;2023-03-01T05:49:14;1.25;;;1.10;;
22107;SDS011;11220;48.812;9.128;2023-03-01T05:51:40;1.13;;;1.02;;
22107;SDS011;11220;48.812;9.128;2023-03-01T05:54:06;1.35;;;1.10;;
22107;SDS011;11220;48.812;9.128;2023-03-01T05:56:33;1.40;;;1.27;;
22107;SDS011;11220;48.812;9.128;2023-03-01T05:58:59;1.40;;;1.00;;
22107;SDS011;11220;48.812;9.128;2023-03-01T06:01:26;1.10;;;0.90;;
22107;SDS011;11220;48.812;9.128;2023-03-01T06:03:51;1.13;;;1.02;;
22107;SDS011;11220;48.812;9.128;2023-03-01T06:06:17;1.10;;;1.00;;
22107;SDS011;11220;48.812;9.128;2023-03-01T06:08:42;1.20;;;1.10;;
22107;SDS011;11220;48.812;9.128;2023-03-01T06:11:08;1.58;;;1.10;;
22107;SDS011;11220;48.812;9.128;2023-03-01T06:13:34;1.48;;;1.17;;
22107;SDS011;11220;48.812;9.128;2023-03-01T06:15:59;1.35;;;1.20;;
22107;SDS011;11220;48.812;9.128;2023-03-01T06:18:25;2.08;;;1.05;;
22107;SDS011;11220;48.812;9.128;2023-03-01T06:20:53;1.00;;;0.90;;
22107;SDS011;11220;48.812;9.128;2023-03-01T06:23:20;1.80;;;1.25;;
22107;SDS011;11220;48.812;9.128;2023-03-01T06:25:46;1.20;;;1.00;;
22107;SDS011;11220;48.812;9.128;2023-03-01T06:28:11;0.90;;;0.90;;
22107;SDS011;11220;48.812;9.128;2023-03-01T06:30:36;1.23;;;1.10;;
22107;SDS011;11220;48.812;9.128;2023-03-01T06:33:02;1.58;;;1.17;;
22107;SDS011;11220;48.812;9.128;2023-03-01T06:35:31;1.45;;;1.15;;
22107;SDS011;11220;48.812;9.128;2023-03-01T06:37:57;1.38;;;1.02;;
22107;SDS011;11220;48.812;9.128;2023-03-01T06:40:23;1.10;;;1.00;;
22107;SDS011;11220;48.812;9.128;2023-03-01T06:42:49;0.88;;;0.88;;
22107;SDS011;11220;48.812;9.128;2023-03-01T06:45:16;0.95;;;0.90;;
22107;SDS011;11220;48.812;9.128;2023-03-01T06:47:43;0.82;;;0.82;;
22107;SDS011;11220;48.812;9.128;2023-03-01T06:50:09;1.10;;;1.00;;
22107;SDS011;11220;48.812;9.128;2023-03-01T06:52:35;1.10;;;1.00;;
22107;SDS011;11220;48.812;9.128;2023-03-01T06:55:00;1.17;;;0.98;;
22107;SDS011;11220;48.812;9.128;2023-03-01T06:57:26;1.33;;;1.00;;
22107;SDS011;11220;48.812;9.128;2023-03-01T06:59:52;1.10;;;1.00;;
22107;SDS011;11220;48.812;9.128;2023-03-01T07:02:18;1.42;;;1.08;;
22107;SDS011;11220;48.812;9.128;2023-03-01T07:04:43;0.98;;;0.77;;
22107;SDS011;11220;48.812;9.128;2023-03-01T07:07:09;0.90;;;0.70;;
22107;SDS011;11220;48.812;9.128;2023-03-01T07:09:35;0.93;;;0.90;;
22107;SDS011;11220;48.812;9.128;2023-03-01T07:12:01;1.02;;;0.95;;
22107;SDS011;11220;48.812;9.128;2023-03-01T07:14:27;1.83;;;1.10;;
22107;SDS011;11220;48.812;9.128;2023-03-01T07:16:53;0.77;;;0.77;;
22107;SDS011;11220;48.812;9.128;2023-03-01T07:19:19;1.20;;;1.05;;
22107;SDS011;11220;48.812;9.128;2023-03-01T07:21:46;1.00;;;0.90;;
22107;SDS011;11220;48.812;9.128;2023-03-01T07:24:11;1.35;;;0.93;;
22107;SDS011;11220;48.812;9.128;2023-03-01T07:26:37;1.52;;;1.05;;
22107;SDS011;11220;48.812;9.128;2023-03-01T07:29:03;1.15;;;1.05;;
22107;SDS011;11220;48.812;9.128;2023-03-01T07:31:30;1.40;;;1.10;;
22107;SDS011;11220;48.812;9.128;2023-03-01T07:33:56;1.10;;;0.93;;
22107;SDS011;11220;48.812;9.128;2023-03-01T07:36:21;1.30;;;0.90;;
22107;SDS011;11220;48.812;9.128;2023-03-01T07:38:47;0.90;;;0.90;;
22107;SDS011;11220;48.812;9.128;2023-03-01T07:41:13;0.80;;;0.80;;
22107;SDS011;11220;48.812;9.128;2023-03-01T07:43:39;1.30;;;0.90;;
22107;SDS011;11220;48.812;9.128;2023-03-01T07:46:05;1.30;;;1.20;;
22107;SDS011;11220;48.812;9.128;2023-03-01T07:48:32;0.93;;;0.85;;
22107;SDS011;11220;48.812;9.128;2023-03-01T07:51:01;1.23;;;0.90;;
22107;SDS011;11220;48.812;9.128;2023-03-01T07:53:28;0.90;;;0.80;;
22107;SDS011;11220;48.812;9.128;2023-03-01T07:58:35;0.77;;;0.75;;
22107;SDS011;11220;48.812;9.128;2023-03-01T08:01:06;0.57;;;0.57;;
22107;SDS011;11220;48.812;9.128;2023-03-01T08:03:33;1.05;;;0.70;;
22107;SDS011;11220;48.812;9.128;2023-03-01T08:05:59;1.10;;;0.82;;
22107;SDS011;11220;48.812;9.128;2023-03-01T08:08:27;0.70;;;0.70;;
22107;SDS011;11220;48.812;9.128;2023-03-01T08:10:52;0.95;;;0.82;;
22107;SDS011;11220;48.812;9.128;2023-03-01T08:13:20;1.27;;;0.93;;
22107;SDS011;11220;48.812;9.128;2023-03-01T08:15:47;1.30;;;0.80;;
22107;SDS011;11220;48.812;9.128;2023-03-01T08:18:16;1.35;;;0.80;;
22107;SDS011;11220;48.812;9.128;2023-03-01T08:20:42;1.88;;;0.90;;
22107;SDS011;11220;48.812;9.128;2023-03-01T08:23:08;1.02;;;0.88;;
22107;SDS011;11220;48.812;9.128;2023-03-01T08:25:33;0.85;;;0.85;;
22107;SDS011;11220;48.812;9.128;2023-03-01T08:27:59;0.85;;;0.68;;
22107;SDS011;11220;48.812;9.128;2023-03-01T08:30:25;1.25;;;0.77;;
22107;SDS011;11220;48.812;9.128;2023-03-01T08:32:51;0.70;;;0.70;;
22107;SDS011;11220;48.812;9.128;2023-03-01T08:35:16;0.90;;;0.77;;
22107;SDS011;11220;48.812;9.128;2023-03-01T08:37:44;0.80;;;0.80;;
22107;SDS011;11220;48.812;9.128;2023-03-01T08:40:10;0.77;;;0.65;;
22107;SDS011;11220;48.812;9.128;2023-03-01T08:42:38;0.95;;;0.80;;
22107;SDS011;11220;48.812;9.128;2023-03-01T08:45:04;1.10;;;0.85;;
22107;SDS011;11220;48.812;9.128;2023-03-01T08:47:31;1.00;;;0.90;;
22107;SDS011;11220;48.812;9.128;2023-03-01T08:49:58;1.58;;;1.00;;
22107;SDS011;11220;48.812;9.128;2023-03-01T08:52:24;1.02;;;0.90;;
22107;SDS011;11220;48.812;9.128;2023-03-01T08:54:49;0.95;;;0.73;;
22107;SDS011;11220;48.812;9.128;2023-03-01T08:57:15;0.85;;;0.80;;
22107;SDS011;11220;48.812;9.128;2023-03-01T08:59:40;1.00;;;0.70;;
22107;SDS011;11220;48.812;9.128;2023-03-01T09:02:10;1.15;;;0.75;;
22107;SDS011;11220;48.812;9.128;2023-03-01T09:04:37;0.75;;;0.68;;
22107;SDS011;11220;48.812;9.128;2023-03-01T09:07:03;1.10;;;0.80;;
22107;SDS011;11220;48.812;9.128;2023-03-01T09:09:29;0.90;;;0.80;;
22107;SDS011;11220;48.812;9.128;2023-03-01T09:11:54;1.40;;;1.02;;
22107;SDS011;11220;48.812;9.128;2023-03-01T09:14:20;1.13;;;0.98;;
22107;SDS011;11220;48.812;9.128;2023-03-01T09:16:45;1.10;;;0.90;;
22107;SDS011;11220;48.812;9.128;2023-03-01T09:19:11;1.00;;;0.90;;
22107;SDS011;11220;48.812;9.128;2023-03-01T09:21:37;0.82;;;0.75;;
22107;SDS011;11220;48.812;9.128;2023-03-01T09:24:02;1.13;;;0.80;;
22107;SDS011;11220;48.812;9.128;2023-03-01T09:26:28;0.80;;;0.75;;
22107;SDS011;11220;48.812;9.128;2023-03-01T09:28:54;1.13;;;0.88;;
22107;SDS011;11220;48.812;9.128;2023-03-01T09:31:22;1.05;;;0.80;;
22107;SDS011;11220;48.812;9.128;2023-03-01T09:33:49;0.98;;;0.85;;
22107;SDS011;11220;48.812;9.128;2023-03-01T09:36:18;1.13;;;0.93;;
22107;SDS011;11220;48.812;9.128;2023-03-01T09:38:45;0.80;;;0.80;;
22107;SDS011;11220;48.812;9.128;2023-03-01T09:44:10;1.55;;;1.00;;
22107;SDS011;11220;48.812;9.128;2023-03-01T09:46:45;0.98;;;0.80;;
22107;SDS011;11220;48.812;9.128;2023-03-01T09:49:21;1.08;;;0.73;;
22107;SDS011;11220;48.812;9.128;2023-03-01T09:52:52;1.08;;;0.90;;
22107;SDS011;11220;48.812;9.128;2023-03-01T09:54:52;1.17;;;0.77;;
22107;SDS011;11220;48.812;9.128;2023-03-01T09:57:22;1.10;;;1.00;;
22107;SDS011;11220;48.812;9.128;2023-03-01T10:00:02;1.10;;;0.80;;
22107;SDS011;11220;48.812;9.128;2023-03-01T10:02:42;1.05;;;0.93;;
22107;SDS011;11220;48.812;9.128;2023-03-01T10:10:32;1.27;;;0.85;;
22107;SDS011;11220;48.812;9.128;2023-03-01T10:13:01;1.17;;;0.82;;
22107;SDS011;11220;48.812;9.128;2023-03-01T10:15:37;0.80;;;0.80;;
22107;SDS011;11220;48.812;9.128;2023-03-01T10:18:26;0.88;;;0.88;;
22107;SDS011;11220;48.812;9.128;2023-03-01T10:23:25;1.40;;;1.10;;
22107;SDS011;11220;48.812;9.128;2023-03-01T10:28:45;1.13;;;0.80;;
22107;SDS011;11220;48.812;9.128;2023-03-01T10:31:38;1.00;;;0.90;;
22107;SDS011;11220;48.812;9.128;2023-03-01T10:34:25;1.08;;;0.95;;
22107;SDS011;11220;48.812;9.128;2023-03-01T10:36:57;0.90;;;0.80;;
22107;SDS011;11220;48.812;9.128;2023-03-01T10:39:26;0.85;;;0.77;;
22107;SDS011;11220;48.812;9.128;2023-03-01T10:41:53;0.80;;;0.80;;
22107;SDS011;11220;48.812;9.128;2023-03-01T10:44:41;1.85;;;0.95;;
22107;SDS011;11220;48.812;9.128;2023-03-01T10:47:22;1.23;;;0.85;;
22107;SDS011;11220;48.812;9.128;2023-03-01T10:49:51;0.80;;;0.80;;
22107;SDS011;11220;48.812;9.128;2023-03-01T10:52:29;1.08;;;0.80;;
22107;SDS011;11220;48.812;9.128;2023-03-01T10:58:16;1.05;;;0.80;;
22107;SDS011;11220;48.812;9.128;2023-03-01T11:00:49;1.08;;;0.90;;
22107;SDS011;11220;48.812;9.128;2023-03-01T11:05:57;0.70;;;0.70;;
22107;SDS011;11220;48.812;9.128;2023-03-01T11:08:32;1.40;;;0.90;;
22107;SDS011;11220;48.812;9.128;2023-03-01T11:13:38;1.38;;;1.10;;
22107;SDS011;11220;48.812;9.128;2023-03-01T11:16:22;1.67;;;1.15;;
22107;SDS011;11220;48.812;9.128;2023-03-01T11:21:33;0.98;;;0.95;;
22107;SDS011;11220;48.812;9.128;2023-03-01T11:24:02;1.45;;;1.30;;
22107;SDS011;11220;48.812;9.128;2023-03-01T11:26:31;1.77;;;1.23;;
22107;SDS011;11220;48.812;9.128;2023-03-01T11:29:04;1.13;;;1.00;;
22107;SDS011;11220;48.812;9.128;2023-03-01T11:31:37;1.42;;;1.17;;
22107;SDS011;11220;48.812;9.128;2023-03-01T11:34:07;1.17;;;1.00;;
22107;SDS011;11220;48.812;9.128;2023-03-01T11:41:39;1.17;;;0.90;;
22107;SDS011;11220;48.812;9.128;2023-03-01T11:44:14;0.95;;;0.90;;
22107;SDS011;11220;48.812;9.128;2023-03-01T11:47:30;1.00;;;0.90;;
22107;SDS011;11220;48.812;9.128;2023-03-01T11:49:53;1.08;;;0.90;;
22107;SDS011;11220;48.812;9.128;2023-03-01T11:58:35;1.00;;;0.80;;
22107;SDS011;11220;48.812;9.128;2023-03-01T12:01:29;0.93;;;0.80;;
22107;SDS011;11220;48.812;9.128;2023-03-01T12:25:55;0.60;;;0.60;;
22107;SDS011;11220;48.812;9.128;2023-03-01T12:28:55;1.08;;;0.60;;
22107;SDS011;11220;48.812;9.128;2023-03-01T12:31:44;0.98;;;0.60;;
22107;SDS011;11220;48.812;9.128;2023-03-01T12:37:47;1.15;;;0.60;;
22107;SDS011;11220;48.812;9.128;2023-03-01T12:43:07;0.75;;;0.60;;
22107;SDS011;11220;48.812;9.128;2023-03-01T12:45:46;0.50;;;0.50;;
22107;SDS011;11220;48.812;9.128;2023-03-01T12:51:23;0.73;;;0.50;;
22107;SDS011;11220;48.812;9.128;2023-03-01T12:53:52;0.73;;;0.73;;
22107;SDS011;11220;48.812;9.128;2023-03-01T12:56:24;0.70;;;0.67;;
22107;SDS011;11220;48.812;9.128;2023-03-01T13:01:55;0.70;;;0.65;;
22107;SDS011;11220;48.812;9.128;2023-03-01T13:07:17;1.40;;;0.90;;
22107;SDS011;11220;48.812;9.128;2023-03-01T13:17:59;0.90;;;0.80;;
22107;SDS011;11220;48.812;9.128;2023-03-01T13:23:09;0.90;;;0.90;;
22107;SDS011;11220;48.812;9.128;2023-03-01T13:33:55;1.00;;;0.90;;
22107;SDS011;11220;48.812;9.128;2023-03-01T13:44:25;1.20;;;1.10;;
22107;SDS011;11220;48.812;9.128;2023-03-01T13:49:48;1.65;;;1.23;;
22107;SDS011;11220;48.812;9.128;2023-03-01T13:55:15;1.10;;;1.00;;
22107;SDS011;11220;48.812;9.128;2023-03-01T13:57:50;1.48;;;1.13;;
22107;SDS011;11220;48.812;9.128;2023-03-01T14:00:28;1.10;;;1.00;;
22107;SDS011;11220;48.812;9.128;2023-03-01T14:03:00;1.15;;;1.05;;
22107;SDS011;11220;48.812;9.128;2023-03-01T14:05:28;1.25;;;1.00;;
22107;SDS011;11220;48.812;9.128;2023-03-01T14:07:54;1.02;;;0.82;;
22107;SDS011;11220;48.812;9.128;2023-03-01T14:10:20;1.40;;;1.13;;
22107;SDS011;11220;48.812;9.128;2023-03-01T14:12:54;1.20;;;0.82;;
22107;SDS011;11220;48.812;9.128;2023-03-01T14:15:39;1.58;;;1.08;;
22107;SDS011;11220;48.812;9.128;2023-03-01T14:18:25;0.68;;;0.68;;
22107;SDS011;11220;48.812;9.128;2023-03-01T14:20:57;0.80;;;0.80;;
22107;SDS011;11220;48.812;9.128;2023-03-01T14:23:24;0.90;;;0.90;;
22107;SDS011;11220;48.812;9.128;2023-03-01T14:25:52;0.80;;;0.77;;
22107;SDS011;11220;48.812;9.128;2023-03-01T14:28:24;0.98;;;0.73;;
22107;SDS011;11220;48.812;9.128;2023-03-01T14:30:52;0.52;;;0.52;;
22107;SDS011;11220;48.812;9.128;2023-03-01T14:35:53;0.73;;;0.60;;
22107;SDS011;11220;48.812;9.128;2023-03-01T14:38:20;0.68;;;0.68;;
22107;SDS011;11220;48.812;9.128;2023-03-01T14:40:57;0.50;;;0.50;;
22107;SDS011;11220;48.812;9.128;2023-03-01T14:43:26;0.40;;;0.40;;
22107;SDS011;11220;48.812;9.128;2023-03-01T14:45:53;0.60;;;0.60;;
22107;SDS011;11220;48.812;9.128;2023-03-01T14:48:19;0.50;;;0.50;;
22107;SDS011;11220;48.812;9.128;2023-03-01T14:50:45;0.30;;;0.30;;
22107;SDS011;11220;48.812;9.128;2023-03-01T14:53:15;0.50;;;0.50;;
22107;SDS011;11220;48.812;9.128;2023-03-01T14:55:54;0.50;;;0.50;;
22107;SDS011;11220;48.812;9.128;2023-03-01T14:58:31;0.45;;;0.45;;
22107;SDS011;11220;48.812;9.128;2023-03-01T15:00:58;0.40;;;0.40;;
22107;SDS011;11220;48.812;9.128;2023-03-01T15:03:45;0.40;;;0.40;;
22107;SDS011;11220;48.812;9.128;2023-03-01T15:06:22;0.20;;;0.20;;
22107;SDS011;11220;48.812;9.128;2023-03-01T15:08:49;0.40;;;0.40;;
22107;SDS011;11220;48.812;9.128;2023-03-01T15:11:29;0.30;;;0.20;;
22107;SDS011;11220;48.812;9.128;2023-03-01T15:13:57;0.25;;;0.20;;
22107;SDS011;11220;48.812;9.128;2023-03-01T15:16:27;0.22;;;0.22;;
22107;SDS011;11220;48.812;9.128;2023-03-01T15:18:56;0.35;;;0.20;;
22107;SDS011;11220;48.812;9.128;2023-03-01T15:21:24;0.20;;;0.20;;
22107;SDS011;11220;48.812;9.128;2023-03-01T15:26:30;0.20;;;0.20;;
22107;SDS011;11220;48.812;9.128;2023-03-01T15:28:59;0.38;;;0.30;;
22107;SDS011;11220;48.812;9.128;2023-03-01T15:31:27;0.40;;;0.20;;
22107;SDS011;11220;48.812;9.128;2023-03-01T15:34:08;0.13;;;0.10;;
22107;SDS011;11220;48.812;9.128;2023-03-01T15:39:37;0.10;;;0.10;;
22107;SDS011;11220;48.812;9.128;2023-03-01T15:45:06;0.10;;;0.10;;
22107;SDS011;11220;48.812;9.128;2023-03-01T15:47:39;0.30;;;0.20;;
22107;SDS011;11220;48.812;9.128;2023-03-01T15:50:11;0.30;;;0.20;;
22107;SDS011;11220;48.812;9.128;2023-03-01T15:52:42;0.25;;;0.25;;
22107;SDS011;11220;48.812;9.128;2023-03-01T15:55:15;0.13;;;0.10;;
22107;SDS011;11220;48.812;9.128;2023-03-01T15:57:43;0.30;;;0.22;;
22107;SDS011;11220;48.812;9.128;2023-03-01T16:00:09;0.30;;;0.30;;
22107;SDS011;11220;48.812;9.128;2023-03-01T16:02:38;0.20;;;0.20;;
22107;SDS011;11220;48.812;9.128;2023-03-01T16:05:04;0.40;;;0.30;;
22107;SDS011;11220;48.812;9.128;2023-03-01T16:07:30;0.40;;;0.30;;
22107;SDS011;11220;48.812;9.128;2023-03-01T16:09:56;0.50;;;0.43;;
22107;SDS011;11220;48.812;9.128;2023-03-01T16:12:22;0.35;;;0.32;;
22107;SDS011;11220;48.812;9.128;2023-03-01T16:14:49;0.50;;;0.45;;
22107;SDS011;11220;48.812;9.128;2023-03-01T16:17:14;0.40;;;0.40;;
22107;SDS011;11220;48.812;9.128;2023-03-01T16:19:40;0.32;;;0.30;;
22107;SDS011;11220;48.812;9.128;2023-03-01T16:22:06;0.40;;;0.40;;
22107;SDS011;11220;48.812;9.128;2023-03-01T16:24:34;0.43;;;0.43;;
22107;SDS011;11220;48.812;9.128;2023-03-01T16:27:00;0.50;;;0.50;;
22107;SDS011;11220;48.812;9.128;2023-03-01T16:29:26;0.50;;;0.50;;
22107;SDS011;11220;48.812;9.128;2023-03-01T16:31:54;0.50;;;0.50;;
22107;SDS011;11220;48.812;9.128;2023-03-01T16:34:19;0.45;;;0.45;;
22107;SDS011;11220;48.812;9.128;2023-03-01T16:36:46;0.70;;;0.63;;
22107;SDS011;11220;48.812;9.128;2023-03-01T16:39:12;0.60;;;0.60;;
22107;SDS011;11220;48.812;9.128;2023-03-01T16:41:37;0.60;;;0.60;;
22107;SDS011;11220;48.812;9.128;2023-03-01T16:44:03;0.80;;;0.80;;
22107;SDS011;11220;48.812;9.128;2023-03-01T16:46:28;0.68;;;0.63;;
22107;SDS011;11220;48.812;9.128;2023-03-01T16:48:54;0.70;;;0.70;;
22107;SDS011;11220;48.812;9.128;2023-03-01T16:51:21;1.08;;;0.98;;
22107;SDS011;11220;48.812;9.128;2023-03-01T16:53:48;1.67;;;1.15;;
22107;SDS011;11220;48.812;9.128;2023-03-01T16:56:14;2.28;;;1.70;;
22107;SDS011;11220;48.812;9.128;2023-03-01T16:58:41;1.65;;;1.50;;
22107;SDS011;11220;48.812;9.128;2023-03-01T17:01:08;0.90;;;0.90;;
22107;SDS011;11220;48.812;9.128;2023-03-01T17:03:35;1.83;;;1.20;;
22107;SDS011;11220;48.812;9.128;2023-03-01T17:06:03;1.40;;;1.20;;
22107;SDS011;11220;48.812;9.128;2023-03-01T17:08:29;1.40;;;0.90;;
22107;SDS011;11220;48.812;9.128;2023-03-01T17:10:55;1.48;;;1.10;;
22107;SDS011;11220;48.812;9.128;2023-03-01T17:13:28;1.80;;;1.30;;
22107;SDS011;11220;48.812;9.128;2023-03-01T17:15:53;0.60;;;0.60;;
22107;SDS011;11220;48.812;9.128;2023-03-01T17:18:19;0.98;;;0.88;;
22107;SDS011;11220;48.812;9.128;2023-03-01T17:20:44;0.80;;;0.80;;